Time;durP1;ratioP1;P1;durP2;ratioP2;P2;SDS_P1;SDS_P2;PMS_P1;PMS_P2;Temp;Humidity;BMP_temperature;BMP_pressure;BME280_temperature;BME280_humidity;BME280_pressure;Samples;Min_cycle;Max_cycle;Signal;HPM_P1;HPM_P2
2021/12/17 00:00:31;;;;;;;34.40;23.10;;;;;;;7.83;77.37;101027.28;2622951;54;20037;-66
2021/12/17 00:03:15;;;;;;;42.08;26.90;;;;;;;7.83;77.75;101022.03;2622838;54;20140;-66
2021/12/17 00:08:32;;;;;;;42.03;26.35;;;;;;;7.83;78.24;101028.13;2623306;54;20037;-65
2021/12/17 00:11:02;;;;;;;43.45;25.92;;;;;;;7.80;78.27;101022.28;2623203;54;20030;-66
2021/12/17 00:13:33;;;;;;;43.30;26.60;;;;;;;7.83;78.21;101019.38;2623615;54;20030;-67
2021/12/17 00:16:11;;;;;;;39.35;25.52;;;;;;;7.83;78.51;101017.59;2623445;54;20042;-65
2021/12/17 00:18:54;;;;;;;41.60;26.85;;;;;;;7.86;78.30;101012.09;2623397;39;20462;-65
2021/12/17 00:48:49;;;;;;;36.55;24.15;;;;;;;7.84;79.18;100992.94;2621933;54;20031;-66
2021/12/17 00:54:31;;;;;;;35.80;23.77;;;;;;;7.89;79.46;100992.59;2622033;47;20034;-66
2021/12/17 00:57:03;;;;;;;41.85;24.58;;;;;;;7.91;79.43;100985.38;2622821;54;20031;-65
2021/12/17 00:59:33;;;;;;;40.20;25.08;;;;;;;7.90;79.15;100981.09;2623279;54;20089;-68
2021/12/17 01:02:07;;;;;;;42.42;25.42;;;;;;;7.92;79.06;100980.00;2623138;54;20038;-66
2021/12/17 01:04:37;;;;;;;40.25;25.55;;;;;;;7.92;78.91;100984.44;2622515;47;20026;-68
2021/12/17 01:07:08;;;;;;;40.72;24.85;;;;;;;7.85;78.82;100981.44;2623335;54;20077;-66
2021/12/17 01:09:42;;;;;;;42.95;27.35;;;;;;;7.84;79.61;100979.78;2622990;54;20031;-65
2021/12/17 01:12:12;;;;;;;39.50;24.90;;;;;;;7.85;79.70;100983.25;2622307;47;20053;-66
2021/12/17 01:14:50;;;;;;;42.95;27.88;;;;;;;7.84;79.63;100984.22;2621571;54;20291;-66
2021/12/17 01:17:30;;;;;;;41.67;27.00;;;;;;;7.84;79.58;100978.94;2621090;39;20437;-66
2021/12/17 01:20:25;;;;;;;43.92;27.27;;;;;;;7.84;79.95;100976.31;2621228;54;20149;-66
2021/12/17 01:35:28;;;;;;;39.28;23.98;;;;;;;7.74;80.29;100972.72;2621165;54;20047;-65
2021/12/17 01:41:13;;;;;;;38.63;24.10;;;;;;;7.77;79.80;100980.38;2621972;54;20022;-65
2021/12/17 01:43:49;;;;;;;40.58;23.33;;;;;;;7.78;80.40;100977.63;2621529;54;20034;-65
2021/12/17 01:46:22;;;;;;;31.85;20.15;;;;;;;7.79;80.37;100981.09;2621192;47;20030;-64
2021/12/17 01:49:06;;;;;;;34.38;20.92;;;;;;;7.80;80.30;100983.63;2620414;47;20041;-66
2021/12/17 01:59:19;;;;;;;36.13;22.75;;;;;;;7.82;80.36;100991.38;2621751;54;20027;-67
2021/12/17 01:59:55;;;;;;;34.78;21.92;;;;;;;7.78;79.91;100985.53;2620381;47;20044;-66
2021/12/17 02:02:25;;;;;;;37.97;22.55;;;;;;;7.75;80.39;100977.84;2620746;54;20041;-66
2021/12/17 02:04:55;;;;;;;37.28;22.98;;;;;;;7.74;80.75;100986.72;2618476;54;20022;-67
2021/12/17 02:07:25;;;;;;;36.75;23.67;;;;;;;7.75;80.68;100983.13;2618618;47;20034;-67
2021/12/17 02:10:30;;;;;;;34.95;22.50;;;;;;;7.77;80.72;100988.28;2621417;47;20030;-66
2021/12/17 02:13:07;;;;;;;36.50;22.83;;;;;;;7.74;80.47;100991.16;2620983;54;20037;-66
2021/12/17 02:29:47;;;;;;;39.78;23.85;;;;;;;7.74;81.19;100975.34;2619138;47;20042;-66
2021/12/17 02:32:19;;;;;;;42.45;26.10;;;;;;;7.75;81.14;100980.50;2618208;54;20077;-66
2021/12/17 02:35:03;;;;;;;41.50;24.88;;;;;;;7.73;81.04;100971.88;2619256;54;20026;-67
2021/12/17 02:37:35;;;;;;;41.75;27.13;;;;;;;7.76;81.31;100965.56;2619383;46;20042;-66
2021/12/17 02:42:23;;;;;;;41.42;25.90;;;;;;;7.76;81.59;100966.38;2620051;54;20034;-67
2021/12/17 02:45:54;;;;;;;37.40;22.13;;;;;;;7.79;81.08;100960.84;2620115;39;20429;-67
2021/12/17 02:48:26;;;;;;;37.78;24.08;;;;;;;7.79;81.45;100962.66;2620030;46;20050;-66
2021/12/17 02:50:59;;;;;;;40.55;23.88;;;;;;;7.79;81.38;100960.84;2619955;51;20090;-67
2021/12/17 02:53:32;;;;;;;33.60;21.33;;;;;;;7.77;81.36;100962.78;2620285;54;20046;-67
2021/12/17 02:56:04;;;;;;;31.30;20.02;;;;;;;7.76;80.94;100960.28;2620569;54;20074;-67
2021/12/17 02:58:36;;;;;;;31.63;20.25;;;;;;;7.74;80.84;100963.03;2620735;54;20034;-67
2021/12/17 03:01:12;;;;;;;29.63;19.55;;;;;;;7.75;80.72;100959.44;2621619;39;20436;-66
2021/12/17 03:03:43;;;;;;;32.08;20.00;;;;;;;7.76;80.79;100957.66;2620468;54;20023;-67
2021/12/17 03:06:12;;;;;;;27.35;18.63;;;;;;;7.76;80.62;100952.41;2620859;54;20030;-66
2021/12/17 03:08:46;;;;;;;26.42;18.20;;;;;;;7.74;80.72;100960.38;2620747;54;20053;-66
2021/12/17 03:11:17;;;;;;;32.15;18.48;;;;;;;7.72;80.74;100954.44;2619549;54;20042;-67
2021/12/17 03:13:48;;;;;;;27.70;17.58;;;;;;;7.73;80.17;100964.00;2619899;54;20030;-67
2021/12/17 03:16:26;;;;;;;29.98;19.00;;;;;;;7.71;80.54;100960.63;2620348;54;20026;-67
2021/12/17 03:19:10;;;;;;;26.45;17.02;;;;;;;7.70;80.57;100954.53;2619467;54;20030;-67
2021/12/17 03:24:25;;;;;;;13.13;9.45;;;;;;;7.70;78.84;100948.44;2619813;47;20030;-67
2021/12/17 03:26:56;;;;;;;11.68;8.40;;;;;;;7.67;78.41;100957.44;2620570;47;20546;-67
2021/12/17 03:29:26;;;;;;;11.73;8.85;;;;;;;7.63;78.65;100950.72;2621574;54;20027;-67
2021/12/17 03:32:02;;;;;;;11.48;8.23;;;;;;;7.65;78.03;100958.50;2620437;54;20027;-66
2021/12/17 03:34:31;;;;;;;12.23;9.30;;;;;;;7.64;77.29;100949.75;2621644;39;20438;-71
2021/12/17 03:37:01;;;;;;;13.48;9.07;;;;;;;7.64;77.68;100957.66;2620955;54;20038;-67
2021/12/17 03:39:44;;;;;;;10.63;7.93;;;;;;;7.62;77.20;100956.09;2620911;47;20023;-67
2021/12/17 03:42:15;;;;;;;12.48;7.68;;;;;;;7.64;76.61;100962.09;2621376;54;20038;-67
2021/12/17 03:44:44;;;;;;;9.02;6.80;;;;;;;7.63;77.04;100956.00;2622590;54;20023;-67
2021/12/17 03:47:34;;;;;;;8.73;7.00;;;;;;;7.67;76.52;100961.81;2621997;54;20062;-66
2021/12/17 03:50:15;;;;;;;11.20;8.48;;;;;;;7.68;76.46;100964.34;2622301;39;20445;-67
2021/12/17 03:52:44;;;;;;;9.90;8.00;;;;;;;7.71;76.39;100968.53;2622330;47;20022;-69
2021/12/17 03:55:18;;;;;;;12.93;8.98;;;;;;;7.69;76.34;100958.13;2623718;47;20022;-67
2021/12/17 03:57:50;;;;;;;12.93;9.63;;;;;;;7.65;76.47;100969.03;2623485;47;20034;-67
2021/12/17 04:00:20;;;;;;;14.00;10.65;;;;;;;7.62;76.61;100956.94;2629178;39;20462;-66
2021/12/17 04:02:56;;;;;;;15.00;10.10;;;;;;;7.63;76.63;100956.00;2624252;46;20138;-66
2021/12/17 04:05:41;;;;;;;14.50;10.57;;;;;;;7.60;76.67;100956.22;2623405;47;20026;-66
2021/12/17 04:08:49;;;;;;;21.45;13.65;;;;;;;7.56;77.03;100962.69;2622849;54;20062;-66
2021/12/17 04:11:47;;;;;;;18.25;13.73;;;;;;;7.55;77.65;100963.66;2621923;47;20038;-67
2021/12/17 04:14:34;;;;;;;20.38;14.85;;;;;;;7.59;77.66;100964.22;2622276;39;20469;-67
2021/12/17 04:17:06;;;;;;;21.67;15.13;;;;;;;7.64;77.68;100957.66;2621830;54;20548;-67
2021/12/17 04:19:36;;;;;;;15.93;11.93;;;;;;;7.69;76.48;100954.66;2621561;51;20074;-67
2021/12/17 04:22:07;;;;;;;16.70;11.77;;;;;;;7.71;76.49;100950.09;2621287;54;20031;-67
2021/12/17 04:24:37;;;;;;;13.93;10.57;;;;;;;7.70;75.76;100946.63;2621741;49;20056;-66
2021/12/17 04:27:09;;;;;;;14.75;10.38;;;;;;;7.72;74.98;100937.81;2621885;54;20042;-67
2021/12/17 04:29:42;;;;;;;15.18;11.73;;;;;;;7.68;75.47;100940.66;2621438;54;20082;-66
2021/12/17 04:32:13;;;;;;;11.68;8.75;;;;;;;7.70;74.77;100946.63;2621202;46;20086;-66
2021/12/17 04:34:43;;;;;;;11.02;7.93;;;;;;;7.70;74.34;100948.44;2621421;46;20042;-67
2021/12/17 04:37:13;;;;;;;10.80;8.70;;;;;;;7.69;73.92;100942.34;2620998;47;20039;-66
2021/12/17 04:39:50;;;;;;;10.00;7.18;;;;;;;7.71;74.16;100939.56;2621105;54;20026;-67
2021/12/17 04:42:31;;;;;;;28.38;18.60;;;;;;;7.72;73.33;100936.00;2621297;47;20030;-67
2021/12/17 04:45:01;;;;;;;17.48;11.82;;;;;;;7.71;73.50;100942.19;2621427;47;20035;-67
2021/12/17 04:58:28;;;;;;;8.57;6.13;;;;;;;7.61;71.38;100941.28;2620692;54;20031;-64
2021/12/17 05:01:09;;;;;;;9.43;7.70;;;;;;;7.61;72.04;100936.00;2621089;47;20059;-65
2021/12/17 05:03:41;;;;;;;11.02;8.63;;;;;;;7.63;72.47;100940.19;2621152;54;20018;-66
2021/12/17 05:06:18;;;;;;;10.65;7.60;;;;;;;7.58;72.59;100937.06;2621076;54;20030;-64
2021/12/17 05:09:06;;;;;;;12.25;8.50;;;;;;;7.59;72.90;100935.28;2621712;54;20034;-66
2021/12/17 05:20:10;;;;;;;12.88;9.77;;;;;;;7.63;71.64;100919.16;2620851;54;20548;-65
2021/12/17 05:22:44;;;;;;;23.48;18.23;;;;;;;7.60;71.25;100914.13;2620345;47;20023;-66
2021/12/17 05:25:13;;;;;;;48.78;32.40;;;;;;;7.61;71.41;100912.31;2621265;46;20026;-66
2021/12/17 05:27:43;;;;;;;13.43;10.95;;;;;;;7.61;71.15;100915.78;2621971;39;20425;-65
2021/12/17 05:30:15;;;;;;;11.45;9.50;;;;;;;7.60;71.13;100921.19;2620997;54;20041;-66
2021/12/17 05:32:45;;;;;;;13.20;9.52;;;;;;;7.60;71.84;100921.19;2621253;54;20077;-66
2021/12/17 05:35:15;;;;;;;11.73;9.63;;;;;;;7.59;71.57;100911.59;2622014;54;20522;-66
2021/12/17 05:37:47;;;;;;;11.60;9.25;;;;;;;7.59;71.09;100911.59;2621101;54;20030;-66
2021/12/17 05:40:17;;;;;;;13.00;8.98;;;;;;;7.54;71.47;100905.84;2621504;54;20593;-66
2021/12/17 05:42:50;;;;;;;12.88;10.52;;;;;;;7.52;71.43;100910.41;2621220;54;20035;-66
2021/12/17 05:45:36;;;;;;;10.77;9.13;;;;;;;7.46;71.40;100911.72;2622364;54;20038;-67
2021/12/17 05:48:10;;;;;;;11.77;10.23;;;;;;;7.47;71.40;100920.44;2624408;31;20506;-66
2021/12/17 05:50:42;;;;;;;15.27;10.77;;;;;;;7.46;71.60;100916.97;2622123;54;20037;-66
2021/12/17 05:53:12;;;;;;;13.75;10.98;;;;;;;7.45;71.36;100910.88;2621812;54;20046;-66
2021/12/17 05:55:42;;;;;;;13.95;11.77;;;;;;;7.43;71.65;100915.44;2621235;47;20035;-66
2021/12/17 05:58:13;;;;;;;13.55;12.02;;;;;;;7.37;71.69;100918.56;2622150;46;20030;-66
2021/12/17 06:00:47;;;;;;;16.60;12.60;;;;;;;7.38;71.97;100928.09;2621655;54;20029;-67
2021/12/17 06:03:42;;;;;;;15.65;12.95;;;;;;;7.41;71.93;100924.41;2621146;54;20049;-66
2021/12/17 06:06:14;;;;;;;17.98;13.32;;;;;;;7.36;71.69;100918.69;2620883;47;20022;-66
2021/12/17 06:08:45;;;;;;;18.85;13.50;;;;;;;7.35;71.81;100927.53;2621627;54;20030;-66
2021/12/17 06:11:15;;;;;;;19.48;14.40;;;;;;;7.31;72.12;100924.31;2621233;53;20038;-66
2021/12/17 06:13:45;;;;;;;17.35;13.70;;;;;;;7.31;72.06;100932.19;2621729;54;20034;-66
2021/12/17 06:16:18;;;;;;;20.55;14.93;;;;;;;7.33;72.46;100927.63;2621057;47;20042;-66
2021/12/17 06:18:47;;;;;;;16.27;13.98;;;;;;;7.32;72.46;100928.59;2621643;54;20035;-65
2021/12/17 06:21:19;;;;;;;18.30;14.90;;;;;;;7.49;72.59;100929.91;2622107;54;20045;-66
2021/12/17 06:23:48;;;;;;;17.92;14.23;;;;;;;7.49;72.35;100935.19;2621806;54;20030;-66
2021/12/17 06:26:18;;;;;;;20.17;15.73;;;;;;;7.45;71.84;100945.09;2622046;54;20049;-67
2021/12/17 06:28:50;;;;;;;18.17;14.95;;;;;;;7.42;71.85;100942.69;2622577;47;20061;-66
2021/12/17 06:31:26;;;;;;;20.00;14.80;;;;;;;7.42;71.87;100947.97;2622029;47;20031;-67
2021/12/17 06:33:58;;;;;;;20.88;16.00;;;;;;;7.39;72.35;100944.75;2622212;54;20026;-66
2021/12/17 06:36:27;;;;;;;18.88;14.38;;;;;;;7.33;72.03;100947.84;2622349;39;20414;-66
2021/12/17 06:38:57;;;;;;;19.25;15.55;;;;;;;7.28;72.10;100952.66;2621920;54;20031;-66
2021/12/17 06:41:29;;;;;;;22.40;17.23;;;;;;;7.25;72.37;100956.34;2621509;47;20154;-67
2021/12/17 06:44:00;;;;;;;22.60;16.73;;;;;;;7.27;73.00;100959.69;2622123;54;20041;-67
2021/12/17 06:46:45;;;;;;;23.23;16.95;;;;;;;7.27;73.39;100967.59;2621625;54;20038;-68
2021/12/17 06:49:24;;;;;;;26.80;18.05;;;;;;;7.25;73.86;100977.38;2622242;54;20027;-66
2021/12/17 06:55:03;;;;;;;23.70;18.00;;;;;;;7.25;73.83;100979.19;2621832;47;20026;-66
2021/12/17 07:01:16;;;;;;;25.05;18.63;;;;;;;7.18;74.29;100982.31;2623089;54;20061;-66
2021/12/17 07:32:51;;;;;;;28.80;19.55;;;;;;;7.09;75.22;100985.59;2622366;47;20134;-66
2021/12/17 07:35:45;;;;;;;27.92;19.00;;;;;;;7.05;75.15;100989.44;2622556;54;20112;-66
2021/12/17 07:41:09;;;;;;;28.65;19.38;;;;;;;7.08;75.84;100986.56;2623111;54;20037;-67
2021/12/17 07:43:50;;;;;;;28.25;19.35;;;;;;;7.09;75.41;100988.25;2622976;54;20033;-66
2021/12/17 07:46:23;;;;;;;30.00;18.48;;;;;;;7.10;75.83;100992.56;2622694;54;20023;-66
2021/12/17 07:48:52;;;;;;;30.63;20.00;;;;;;;7.11;75.08;101001.28;2623040;54;20041;-66
2021/12/17 07:51:26;;;;;;;25.23;17.67;;;;;;;7.07;75.09;100992.78;2623355;54;20057;-67
2021/12/17 07:54:03;;;;;;;26.75;18.30;;;;;;;7.07;75.24;100999.84;2623322;39;20441;-66
2021/12/17 07:56:37;;;;;;;22.67;16.15;;;;;;;7.11;75.63;100999.50;2623252;54;20036;-66
2021/12/17 07:59:16;;;;;;;22.73;15.40;;;;;;;7.15;75.27;101000.94;2622844;47;20040;-67
2021/12/17 08:01:46;;;;;;;24.67;17.17;;;;;;;7.16;74.94;101009.66;2622792;54;20089;-66
2021/12/17 08:04:18;;;;;;;23.02;17.10;;;;;;;7.20;74.74;101008.47;2622421;54;20026;-66
2021/12/17 08:06:54;;;;;;;23.25;16.17;;;;;;;7.24;74.22;101007.28;2622374;47;20070;-66
2021/12/17 08:09:30;;;;;;;21.63;15.60;;;;;;;7.22;74.18;101010.97;2619555;54;20580;-66
2021/12/17 08:12:00;;;;;;;23.55;16.50;;;;;;;7.24;73.63;101011.72;2618712;54;20034;-66
2021/12/17 08:14:40;;;;;;;24.33;16.75;;;;;;;7.22;73.98;101016.25;2619371;54;20026;-66
2021/12/17 08:17:30;;;;;;;27.20;16.88;;;;;;;7.26;73.87;101009.78;2618945;47;20031;-66
2021/12/17 08:25:47;;;;;;;34.87;21.23;;;;;;;7.31;73.38;101016.41;2619242;47;20053;-67
2021/12/17 08:28:18;;;;;;;26.27;19.00;;;;;;;7.30;73.33;101005.97;2622216;31;20758;-67
2021/12/17 08:30:48;;;;;;;21.83;15.77;;;;;;;7.33;73.15;101005.75;2621881;54;20027;-66
2021/12/17 08:33:23;;;;;;;20.08;14.40;;;;;;;7.37;72.82;101008.00;2621917;54;20031;-66
2021/12/17 08:35:57;;;;;;;22.17;15.00;;;;;;;7.38;72.42;101017.56;2622464;54;20158;-66
2021/12/17 08:38:37;;;;;;;19.70;13.15;;;;;;;7.34;72.68;101008.25;2622689;54;20585;-66
2021/12/17 08:41:29;;;;;;;21.75;14.55;;;;;;;7.41;72.38;101001.56;2622870;51;20121;-66
2021/12/17 08:44:02;;;;;;;18.73;13.38;;;;;;;7.38;72.02;101011.47;2621375;54;20038;-65
2021/12/17 08:46:35;;;;;;;20.35;15.20;;;;;;;7.39;72.09;101013.19;2621561;54;20031;-66
2021/12/17 08:49:17;;;;;;;21.52;15.88;;;;;;;7.41;71.76;101019.16;2621792;54;20034;-66
2021/12/17 08:52:09;;;;;;;22.50;16.08;;;;;;;7.45;71.95;101005.63;2622416;54;20035;-67
2021/12/17 08:54:39;;;;;;;18.63;13.65;;;;;;;7.48;71.29;101023.00;2623009;47;20066;-68
2021/12/17 08:57:12;;;;;;;20.55;14.40;;;;;;;7.55;71.46;101018.06;2622299;54;20033;-67
2021/12/17 08:59:41;;;;;;;18.30;12.93;;;;;;;7.56;70.42;101017.97;2622663;54;20030;-66
2021/12/17 09:02:14;;;;;;;18.48;13.35;;;;;;;7.54;70.98;101013.78;2621381;54;20034;-67
2021/12/17 09:04:56;;;;;;;18.27;12.65;;;;;;;7.58;70.40;101012.56;2621260;54;20031;-67
2021/12/17 09:07:26;;;;;;;13.98;11.88;;;;;;;7.57;70.53;101013.53;2621395;54;20041;-66
2021/12/17 09:10:19;;;;;;;16.23;11.65;;;;;;;7.62;70.13;101008.75;2621909;54;20082;-66
2021/12/17 09:12:53;;;;;;;15.50;12.45;;;;;;;7.70;70.22;101009.81;2621215;47;20034;-66
2021/12/17 09:15:22;;;;;;;18.38;12.80;;;;;;;7.82;70.26;101010.66;2621886;54;20030;-66
2021/12/17 09:18:11;;;;;;;13.82;11.00;;;;;;;7.89;69.48;101016.28;2621594;54;20022;-66
2021/12/17 09:20:51;;;;;;;14.75;10.82;;;;;;;7.98;69.22;101017.34;2619097;47;20075;-66
2021/12/17 09:23:26;;;;;;;13.48;10.18;;;;;;;8.06;68.28;101025.47;2618868;54;20038;-67
2021/12/17 09:25:55;;;;;;;17.55;10.30;;;;;;;8.08;68.28;101034.09;2618697;46;20535;-67
2021/12/17 09:28:31;;;;;;;10.38;8.45;;;;;;;8.05;68.61;101035.19;2618392;54;20026;-66
2021/12/17 09:31:02;;;;;;;9.93;8.30;;;;;;;8.04;68.63;101038.78;2619248;39;20155;-67
2021/12/17 09:33:32;;;;;;;10.23;8.88;;;;;;;8.08;68.50;101032.31;2619738;39;20422;-67
2021/12/17 09:36:04;;;;;;;8.90;7.88;;;;;;;8.14;67.62;101033.59;2621398;54;20030;-68
2021/12/17 09:38:33;;;;;;;8.35;7.45;;;;;;;8.04;67.44;101030.88;2623763;39;20437;-67
2021/12/17 09:41:03;;;;;;;10.02;8.07;;;;;;;8.06;67.07;101039.47;2621825;54;20042;-66
2021/12/17 09:43:37;;;;;;;13.20;8.40;;;;;;;8.03;67.31;101041.53;2621999;54;20030;-66
2021/12/17 09:46:09;;;;;;;10.05;8.38;;;;;;;7.97;67.96;101044.66;2621761;54;20034;-65
2021/12/17 09:48:39;;;;;;;9.77;8.15;;;;;;;8.06;67.88;101049.19;2620683;54;20031;-66
2021/12/17 09:51:10;;;;;;;8.63;7.13;;;;;;;8.10;66.78;101048.81;2620169;54;20023;-67
2021/12/17 09:53:40;;;;;;;9.10;7.47;;;;;;;8.08;66.84;101049.88;2621091;54;20034;-66
2021/12/17 09:56:10;;;;;;;9.50;6.45;;;;;;;8.00;66.93;101054.91;2619409;54;20018;-66
2021/12/17 09:58:42;;;;;;;8.50;7.03;;;;;;;8.03;66.49;101054.69;2620730;54;20041;-66
2021/12/17 10:01:11;;;;;;;8.30;6.97;;;;;;;8.01;66.88;101056.63;2621736;54;20042;-66
2021/12/17 10:03:41;;;;;;;11.55;6.50;;;;;;;8.04;66.71;101062.50;2621997;54;20026;-66
2021/12/17 10:06:25;;;;;;;8.75;6.90;;;;;;;8.12;67.06;101059.22;2622666;54;20081;-66
2021/12/17 10:08:55;;;;;;;6.78;6.03;;;;;;;8.14;65.68;101059.94;2622745;54;20042;-66
2021/12/17 10:11:25;;;;;;;7.97;5.72;;;;;;;8.06;66.26;101060.56;2621766;54;20069;-66
2021/12/17 10:13:57;;;;;;;7.55;6.03;;;;;;;8.01;66.13;101062.72;2623477;39;20429;-67
2021/12/17 10:16:27;;;;;;;8.45;6.47;;;;;;;7.97;66.47;101056.03;2622833;54;20031;-65
2021/12/17 10:18:56;;;;;;;8.18;6.75;;;;;;;8.01;66.08;101054.81;2623117;54;20042;-67
2021/12/17 10:21:29;;;;;;;7.63;6.20;;;;;;;8.04;66.03;101051.97;2623759;39;20440;-66
2021/12/17 10:23:59;;;;;;;10.75;7.05;;;;;;;7.98;65.82;101046.31;2623170;39;20101;-67
2021/12/17 10:26:31;;;;;;;8.35;6.47;;;;;;;7.97;66.17;101044.66;2622963;39;20481;-65
2021/12/17 10:29:07;;;;;;;6.82;5.88;;;;;;;7.95;65.98;101036.84;2622531;54;20030;-66
2021/12/17 10:31:39;;;;;;;7.93;6.53;;;;;;;8.01;66.15;101038.19;2622948;39;20410;-64
2021/12/17 11:58:53;;;;;;;11.60;8.18;;;;;;;8.49;63.03;100991.28;2583128;47;20050;-63
2021/12/17 12:02:05;;;;;;;13.90;8.80;;;;;;;8.46;63.39;100988.88;2619810;47;20039;-64
2021/12/17 12:04:53;;;;;;;12.68;9.45;;;;;;;8.44;63.87;100988.97;2621797;47;20026;-63
2021/12/17 12:07:34;;;;;;;9.55;8.30;;;;;;;8.41;63.49;100983.16;2621454;54;20034;-63
2021/12/17 12:10:23;;;;;;;13.07;10.32;;;;;;;8.38;63.95;100983.41;2622946;54;20037;-63
2021/12/17 12:12:58;;;;;;;11.70;9.63;;;;;;;8.40;63.72;100990.19;2622527;54;20031;-62
2021/12/17 12:16:02;;;;;;;12.18;10.15;;;;;;;8.42;63.94;100983.00;2622918;54;20098;-63
2021/12/17 12:18:49;;;;;;;14.13;10.90;;;;;;;8.50;63.27;100985.03;2623051;39;20445;-63
2021/12/17 12:21:20;;;;;;;13.40;12.00;;;;;;;8.47;63.20;100995.81;2623191;54;20035;-65
2021/12/17 12:23:56;;;;;;;14.15;11.68;;;;;;;8.53;63.16;100986.56;2623132;54;20049;-63
2021/12/17 12:26:40;;;;;;;12.55;10.77;;;;;;;8.47;64.00;100987.91;2623057;54;20034;-64
2021/12/17 12:29:13;;;;;;;13.45;11.18;;;;;;;8.54;63.73;100990.88;2623176;54;20077;-64
2021/12/17 12:31:54;;;;;;;;;;;;;;;8.48;63.61;100984.31;2622213;46;20034;-64
2021/12/17 12:34:31;;;;;;;16.88;11.00;;;;;;;8.50;63.58;100982.41;2622380;54;19946;-64
2021/12/17 12:37:22;;;;;;;13.30;11.82;;;;;;;8.46;63.46;100972.22;2621796;46;20034;-64
2021/12/17 12:40:22;;;;;;;15.40;11.82;;;;;;;8.19;64.29;100976.94;2622405;54;20031;-63
2021/12/17 12:42:55;;;;;;;14.02;11.45;;;;;;;8.19;64.20;100976.94;2622561;54;20062;-70
2021/12/17 12:45:26;;;;;;;15.57;12.37;;;;;;;8.14;64.12;100968.56;2622810;54;20026;-65
2021/12/17 12:48:01;;;;;;;13.30;11.80;;;;;;;8.23;64.24;100976.69;2622860;54;20079;-67
2021/12/17 12:50:34;;;;;;;14.75;12.95;;;;;;;8.21;64.27;100971.56;2622612;54;20034;-65
2021/12/17 12:53:10;;;;;;;14.68;13.02;;;;;;;8.25;64.58;100978.25;2622900;54;20030;-66
2021/12/17 12:55:45;;;;;;;15.45;12.60;;;;;;;8.28;64.73;100975.34;2622017;54;20114;-69
2021/12/17 12:58:20;;;;;;;15.05;12.70;;;;;;;8.34;64.74;100982.78;2621036;54;20026;-66
2021/12/17 13:00:54;;;;;;;16.35;13.23;;;;;;;8.28;64.34;100985.06;2621443;54;20031;-65
2021/12/17 13:03:28;;;;;;;;;;;;;;;8.22;64.12;100981.13;2621068;39;20666;-66
2021/12/17 13:05:59;;;;;;;15.68;12.45;;;;;;;8.23;64.66;100992.50;2620635;54;19954;-65
2021/12/17 13:08:30;;;;;;;15.05;13.10;;;;;;;8.20;64.75;100980.41;2621660;39;20426;-65
2021/12/17 13:11:02;;;;;;;15.93;12.98;;;;;;;8.28;64.39;100979.78;2621651;54;20034;-66
2021/12/17 13:13:44;;;;;;;18.88;14.25;;;;;;;8.34;64.50;100982.78;2621060;54;20045;-66
2021/12/17 13:16:20;;;;;;;16.50;12.55;;;;;;;8.36;64.69;100983.47;2621081;54;20045;-65
2021/12/17 13:21:59;;;;;;;16.23;12.68;;;;;;;8.36;64.26;100972.09;2620786;54;20026;-66
2021/12/17 13:24:32;;;;;;;23.40;14.50;;;;;;;8.32;64.14;100973.31;2620187;54;20038;-66
2021/12/17 13:27:06;;;;;;;22.13;16.30;;;;;;;8.29;64.54;100969.16;2620493;46;20541;-66
2021/12/17 13:29:38;;;;;;;14.50;11.55;;;;;;;8.27;64.50;100981.59;2620704;46;20022;-66
2021/12/17 13:32:09;;;;;;;14.57;12.77;;;;;;;8.26;64.10;100979.09;2621109;54;20031;-66
2021/12/17 13:34:44;;;;;;;16.83;11.68;;;;;;;8.24;64.58;100978.38;2621880;54;20612;-65
2021/12/17 13:37:18;;;;;;;13.32;11.88;;;;;;;8.22;64.43;100964.50;2622064;54;20039;-67
2021/12/17 13:39:51;;;;;;;20.30;13.93;;;;;;;8.24;64.69;100962.56;2622630;54;20039;-67
2021/12/17 13:42:22;;;;;;;16.02;12.95;;;;;;;8.25;64.44;100965.09;2621832;54;20557;-68
2021/12/17 13:44:53;;;;;;;13.88;11.73;;;;;;;8.25;64.18;100967.72;2622025;54;20034;-66
2021/12/17 13:47:27;;;;;;;12.48;10.85;;;;;;;8.21;64.32;100970.72;2621638;54;20045;-68
2021/12/17 13:50:05;;;;;;;15.45;11.68;;;;;;;8.17;64.50;100965.69;2622412;54;20027;-66
2021/12/17 13:52:47;;;;;;;14.60;12.48;;;;;;;8.18;64.00;100958.63;2622384;39;20444;-66
2021/12/17 13:55:19;;;;;;;14.55;12.52;;;;;;;8.16;64.33;100961.41;2622571;54;20037;-66
2021/12/17 13:57:50;;;;;;;16.40;12.73;;;;;;;8.18;64.62;100956.84;2623937;54;20027;-67
2021/12/17 14:00:23;;;;;;;16.45;12.18;;;;;;;8.20;64.69;100959.31;2623705;54;20525;-67
2021/12/17 14:02:56;;;;;;;12.60;11.15;;;;;;;8.14;64.60;100959.84;2623705;54;20026;-67
2021/12/17 14:05:40;;;;;;;13.50;11.40;;;;;;;8.16;64.38;100950.88;2623449;54;20027;-69
2021/12/17 14:08:12;;;;;;;15.05;11.70;;;;;;;8.17;64.30;100956.97;2623703;54;20820;-67
2021/12/17 14:10:43;;;;;;;13.95;11.90;;;;;;;8.14;64.46;100959.84;2623559;47;20039;-67
2021/12/17 14:13:20;;;;;;;17.10;12.70;;;;;;;8.10;64.71;100951.34;2623234;54;20035;-67
2021/12/17 14:16:06;;;;;;;16.50;11.60;;;;;;;8.07;64.50;100942.84;2623605;54;20046;-67
2021/12/17 14:18:37;;;;;;;15.43;12.93;;;;;;;7.96;64.88;100943.75;2623711;54;20026;-67
2021/12/17 14:21:09;;;;;;;17.30;12.23;;;;;;;7.92;64.83;100953.69;2625211;54;20039;-67
2021/12/17 14:23:42;;;;;;;17.73;12.82;;;;;;;7.87;65.13;100958.44;2623792;54;20034;-67
2021/12/17 14:26:11;;;;;;;15.73;12.70;;;;;;;7.85;65.11;100954.28;2623046;54;20026;-67
2021/12/17 14:28:41;;;;;;;14.27;12.77;;;;;;;7.82;65.41;100959.78;2622054;54;20038;-66
2021/12/17 14:31:15;;;;;;;16.17;13.63;;;;;;;7.80;65.10;100964.34;2622623;54;20054;-67
2021/12/17 14:33:49;;;;;;;16.38;13.70;;;;;;;7.76;65.59;100965.56;2622391;54;20086;-67
2021/12/17 14:36:22;;;;;;;19.98;13.77;;;;;;;7.75;65.53;100966.50;2620770;54;20039;-67
2021/12/17 14:38:58;;;;;;;15.40;13.63;;;;;;;7.71;65.48;100963.25;2621877;54;20553;-66
2021/12/17 14:41:33;;;;;;;14.57;12.48;;;;;;;7.68;65.94;100971.44;2621397;54;20035;-65
2021/12/17 14:44:21;;;;;;;14.20;12.70;;;;;;;7.66;65.78;100974.16;2621970;39;20433;-66
2021/12/17 14:46:56;;;;;;;15.45;12.85;;;;;;;7.65;65.95;100972.50;2621676;54;20030;-66
2021/12/17 15:00:45;;;;;;;15.18;12.52;;;;;;;7.33;66.85;100993.41;2621529;54;20030;-65
2021/12/17 15:03:25;;;;;;;17.10;13.05;;;;;;;7.25;67.36;100985.28;2621808;54;20026;-66
2021/12/17 15:06:02;;;;;;;16.73;12.27;;;;;;;7.21;67.76;100994.34;2621231;47;20038;-66
2021/12/17 15:08:34;;;;;;;20.50;15.68;;;;;;;7.23;68.10;101005.63;2622713;54;20061;-65
2021/12/17 15:11:13;;;;;;;15.77;13.32;;;;;;;7.24;67.98;101001.19;2622692;39;20466;-64
2021/12/17 15:13:42;;;;;;;19.60;14.63;;;;;;;7.26;67.87;101000.09;2622114;54;20082;-65
2021/12/17 15:16:12;;;;;;;19.17;13.35;;;;;;;7.20;67.58;101000.59;2621759;54;20063;-65
2021/12/17 15:18:43;;;;;;;17.55;14.13;;;;;;;7.15;68.28;100997.47;2620613;47;20030;-66
2021/12/17 15:21:13;;;;;;;18.80;13.75;;;;;;;7.14;68.10;101003.66;2621830;54;20090;-65
2021/12/17 15:23:45;;;;;;;19.27;13.98;;;;;;;7.13;68.35;101002.84;2621943;54;20082;-64
2021/12/17 15:26:15;;;;;;;21.60;13.98;;;;;;;7.07;67.96;101003.31;2622103;54;20039;-65
2021/12/17 15:28:44;;;;;;;18.77;13.57;;;;;;;7.04;68.57;100997.44;2621923;54;20082;-66
2021/12/17 15:31:34;;;;;;;18.23;13.57;;;;;;;7.03;68.27;100998.41;2621345;54;20022;-65
2021/12/17 15:34:04;;;;;;;14.85;12.52;;;;;;;7.02;68.18;101008.09;2621825;54;20042;-65
2021/12/17 15:36:33;;;;;;;15.10;13.13;;;;;;;6.99;68.60;101003.06;2621966;54;20042;-65
2021/12/17 15:39:07;;;;;;;16.80;11.50;;;;;;;7.05;67.94;101012.25;2622358;54;20047;-68
2021/12/17 15:41:40;;;;;;;15.68;12.02;;;;;;;6.99;68.35;101013.56;2623646;54;20534;-65
2021/12/17 15:44:11;;;;;;;18.75;13.55;;;;;;;6.97;68.72;101004.94;2623765;54;20033;-65
2021/12/17 15:46:41;;;;;;;15.02;11.75;;;;;;;7.02;68.79;101009.84;2623198;54;20030;-65
2021/12/17 15:49:11;;;;;;;15.98;11.10;;;;;;;7.05;68.56;101014.88;2622660;54;20549;-66
2021/12/17 15:51:41;;;;;;;15.18;11.02;;;;;;;7.07;68.29;101010.38;2623274;54;20031;-66